sensor_id;sensor_type;location;lat;lon;timestamp;P1;durP1;ratioP1;P2;durP2;ratioP2
67065;SDS011;53978;43.846;25.952;2024-02-21T00:01:15;17.30;;;9.43;;
67065;SDS011;53978;43.846;25.952;2024-02-21T00:03:41;19.90;;;9.95;;
67065;SDS011;53978;43.846;25.952;2024-02-21T00:06:07;17.13;;;9.70;;
67065;SDS011;53978;43.846;25.952;2024-02-21T00:08:33;16.73;;;8.32;;
67065;SDS011;53978;43.846;25.952;2024-02-21T00:11:00;18.08;;;9.25;;
67065;SDS011;53978;43.846;25.952;2024-02-21T00:13:25;17.45;;;8.57;;
67065;SDS011;53978;43.846;25.952;2024-02-21T00:15:51;15.63;;;8.70;;
67065;SDS011;53978;43.846;25.952;2024-02-21T00:18:16;25.05;;;9.65;;
67065;SDS011;53978;43.846;25.952;2024-02-21T00:20:41;19.65;;;9.60;;
67065;SDS011;53978;43.846;25.952;2024-02-21T00:23:07;14.10;;;8.60;;
67065;SDS011;53978;43.846;25.952;2024-02-21T00:25:52;20.40;;;9.05;;
67065;SDS011;53978;43.846;25.952;2024-02-21T00:28:17;20.55;;;9.95;;
67065;SDS011;53978;43.846;25.952;2024-02-21T00:30:43;18.75;;;9.60;;
67065;SDS011;53978;43.846;25.952;2024-02-21T00:33:09;15.35;;;8.75;;
67065;SDS011;53978;43.846;25.952;2024-02-21T00:35:34;17.83;;;8.35;;
67065;SDS011;53978;43.846;25.952;2024-02-21T00:38:00;14.95;;;8.38;;
67065;SDS011;53978;43.846;25.952;2024-02-21T00:40:25;15.57;;;8.73;;
67065;SDS011;53978;43.846;25.952;2024-02-21T00:42:51;16.23;;;9.02;;
67065;SDS011;53978;43.846;25.952;2024-02-21T00:45:17;13.85;;;7.85;;
67065;SDS011;53978;43.846;25.952;2024-02-21T00:47:42;14.10;;;8.48;;
67065;SDS011;53978;43.846;25.952;2024-02-21T00:50:10;19.60;;;9.05;;
67065;SDS011;53978;43.846;25.952;2024-02-21T00:52:35;14.95;;;9.07;;
67065;SDS011;53978;43.846;25.952;2024-02-21T00:55:01;16.70;;;9.13;;
67065;SDS011;53978;43.846;25.952;2024-02-21T00:57:26;16.90;;;8.93;;
67065;SDS011;53978;43.846;25.952;2024-02-21T00:59:52;15.23;;;8.65;;
67065;SDS011;53978;43.846;25.952;2024-02-21T01:02:17;16.48;;;8.70;;
67065;SDS011;53978;43.846;25.952;2024-02-21T01:04:42;19.15;;;9.32;;
67065;SDS011;53978;43.846;25.952;2024-02-21T01:07:08;15.70;;;7.80;;
67065;SDS011;53978;43.846;25.952;2024-02-21T01:09:34;13.05;;;8.27;;
67065;SDS011;53978;43.846;25.952;2024-02-21T01:11:59;13.88;;;8.25;;
67065;SDS011;53978;43.846;25.952;2024-02-21T01:14:27;13.88;;;8.23;;
67065;SDS011;53978;43.846;25.952;2024-02-21T01:16:52;15.55;;;8.05;;
67065;SDS011;53978;43.846;25.952;2024-02-21T01:19:18;14.50;;;8.25;;
67065;SDS011;53978;43.846;25.952;2024-02-21T01:21:44;15.43;;;8.43;;
67065;SDS011;53978;43.846;25.952;2024-02-21T01:24:12;18.40;;;8.15;;
67065;SDS011;53978;43.846;25.952;2024-02-21T01:26:40;18.20;;;8.50;;
67065;SDS011;53978;43.846;25.952;2024-02-21T01:29:05;17.25;;;8.18;;
67065;SDS011;53978;43.846;25.952;2024-02-21T01:31:31;16.05;;;8.80;;
67065;SDS011;53978;43.846;25.952;2024-02-21T01:33:56;13.68;;;8.00;;
67065;SDS011;53978;43.846;25.952;2024-02-21T01:36:23;13.88;;;8.38;;
67065;SDS011;53978;43.846;25.952;2024-02-21T01:38:48;14.77;;;8.10;;
67065;SDS011;53978;43.846;25.952;2024-02-21T01:41:15;16.90;;;9.00;;
67065;SDS011;53978;43.846;25.952;2024-02-21T01:43:41;14.10;;;8.20;;
67065;SDS011;53978;43.846;25.952;2024-02-21T01:46:07;14.07;;;8.13;;
67065;SDS011;53978;43.846;25.952;2024-02-21T01:48:32;17.98;;;8.45;;
67065;SDS011;53978;43.846;25.952;2024-02-21T01:50:58;14.82;;;8.63;;
67065;SDS011;53978;43.846;25.952;2024-02-21T01:53:34;16.23;;;8.52;;
67065;SDS011;53978;43.846;25.952;2024-02-21T01:56:05;14.77;;;8.35;;
67065;SDS011;53978;43.846;25.952;2024-02-21T01:58:31;14.90;;;8.43;;
67065;SDS011;53978;43.846;25.952;2024-02-21T02:00:58;14.85;;;8.63;;
67065;SDS011;53978;43.846;25.952;2024-02-21T02:03:24;13.95;;;8.30;;
67065;SDS011;53978;43.846;25.952;2024-02-21T02:05:50;17.08;;;7.88;;
67065;SDS011;53978;43.846;25.952;2024-02-21T02:08:17;17.50;;;8.88;;
67065;SDS011;53978;43.846;25.952;2024-02-21T02:10:43;16.75;;;8.18;;
67065;SDS011;53978;43.846;25.952;2024-02-21T02:13:11;16.75;;;8.57;;
67065;SDS011;53978;43.846;25.952;2024-02-21T02:15:46;14.63;;;8.55;;
67065;SDS011;53978;43.846;25.952;2024-02-21T02:18:13;14.10;;;8.07;;
67065;SDS011;53978;43.846;25.952;2024-02-21T02:20:41;13.80;;;7.78;;
67065;SDS011;53978;43.846;25.952;2024-02-21T02:23:07;15.25;;;8.05;;
67065;SDS011;53978;43.846;25.952;2024-02-21T02:25:36;18.85;;;8.63;;
67065;SDS011;53978;43.846;25.952;2024-02-21T02:28:06;14.25;;;7.32;;
67065;SDS011;53978;43.846;25.952;2024-02-21T02:30:34;15.93;;;7.93;;
67065;SDS011;53978;43.846;25.952;2024-02-21T02:33:01;14.80;;;8.35;;
67065;SDS011;53978;43.846;25.952;2024-02-21T02:35:30;15.07;;;8.20;;
67065;SDS011;53978;43.846;25.952;2024-02-21T02:37:56;15.18;;;8.02;;
67065;SDS011;53978;43.846;25.952;2024-02-21T02:40:23;16.98;;;7.95;;
67065;SDS011;53978;43.846;25.952;2024-02-21T02:42:49;15.02;;;7.97;;
67065;SDS011;53978;43.846;25.952;2024-02-21T02:45:17;15.13;;;7.93;;
67065;SDS011;53978;43.846;25.952;2024-02-21T02:47:46;15.70;;;8.27;;
67065;SDS011;53978;43.846;25.952;2024-02-21T02:50:12;13.43;;;7.93;;
67065;SDS011;53978;43.846;25.952;2024-02-21T02:52:37;14.50;;;7.90;;
67065;SDS011;53978;43.846;25.952;2024-02-21T02:55:03;15.57;;;8.82;;
67065;SDS011;53978;43.846;25.952;2024-02-21T02:57:30;13.15;;;7.57;;
67065;SDS011;53978;43.846;25.952;2024-02-21T02:59:56;16.40;;;8.50;;
67065;SDS011;53978;43.846;25.952;2024-02-21T03:02:22;16.27;;;8.60;;
67065;SDS011;53978;43.846;25.952;2024-02-21T03:04:48;15.32;;;8.05;;
67065;SDS011;53978;43.846;25.952;2024-02-21T03:07:14;15.30;;;8.15;;
67065;SDS011;53978;43.846;25.952;2024-02-21T03:09:40;16.08;;;8.10;;
67065;SDS011;53978;43.846;25.952;2024-02-21T03:12:08;13.15;;;7.82;;
67065;SDS011;53978;43.846;25.952;2024-02-21T03:14:33;15.27;;;8.10;;
67065;SDS011;53978;43.846;25.952;2024-02-21T03:16:59;14.57;;;7.88;;
67065;SDS011;53978;43.846;25.952;2024-02-21T03:19:24;14.10;;;7.88;;
67065;SDS011;53978;43.846;25.952;2024-02-21T03:21:51;13.93;;;7.20;;
67065;SDS011;53978;43.846;25.952;2024-02-21T03:24:18;17.55;;;7.63;;
67065;SDS011;53978;43.846;25.952;2024-02-21T03:26:44;15.90;;;8.35;;
67065;SDS011;53978;43.846;25.952;2024-02-21T03:29:14;15.90;;;8.55;;
67065;SDS011;53978;43.846;25.952;2024-02-21T03:31:40;12.65;;;7.13;;
67065;SDS011;53978;43.846;25.952;2024-02-21T03:34:05;14.15;;;7.93;;
67065;SDS011;53978;43.846;25.952;2024-02-21T03:36:31;16.15;;;8.02;;
67065;SDS011;53978;43.846;25.952;2024-02-21T03:38:57;16.48;;;7.75;;
67065;SDS011;53978;43.846;25.952;2024-02-21T03:41:22;14.43;;;7.65;;
67065;SDS011;53978;43.846;25.952;2024-02-21T03:43:48;15.98;;;7.82;;
67065;SDS011;53978;43.846;25.952;2024-02-21T03:46:14;13.27;;;8.00;;
67065;SDS011;53978;43.846;25.952;2024-02-21T03:48:40;13.82;;;7.47;;
67065;SDS011;53978;43.846;25.952;2024-02-21T03:51:05;18.63;;;8.32;;
67065;SDS011;53978;43.846;25.952;2024-02-21T03:53:32;15.52;;;7.75;;
67065;SDS011;53978;43.846;25.952;2024-02-21T03:56:00;12.02;;;7.22;;
67065;SDS011;53978;43.846;25.952;2024-02-21T03:58:28;15.15;;;7.93;;
67065;SDS011;53978;43.846;25.952;2024-02-21T04:00:53;18.38;;;8.38;;
67065;SDS011;53978;43.846;25.952;2024-02-21T04:03:19;18.45;;;9.48;;
67065;SDS011;53978;43.846;25.952;2024-02-21T04:05:45;19.40;;;9.18;;
67065;SDS011;53978;43.846;25.952;2024-02-21T04:08:10;13.80;;;8.18;;
67065;SDS011;53978;43.846;25.952;2024-02-21T04:10:36;14.68;;;8.15;;
67065;SDS011;53978;43.846;25.952;2024-02-21T04:13:02;17.50;;;8.27;;
67065;SDS011;53978;43.846;25.952;2024-02-21T04:15:30;15.82;;;8.75;;
67065;SDS011;53978;43.846;25.952;2024-02-21T04:17:56;15.05;;;8.63;;
67065;SDS011;53978;43.846;25.952;2024-02-21T04:20:24;14.02;;;8.10;;
67065;SDS011;53978;43.846;25.952;2024-02-21T04:22:52;17.95;;;8.98;;
67065;SDS011;53978;43.846;25.952;2024-02-21T04:25:18;12.48;;;7.47;;
67065;SDS011;53978;43.846;25.952;2024-02-21T04:27:44;14.60;;;8.13;;
67065;SDS011;53978;43.846;25.952;2024-02-21T04:30:12;16.35;;;8.70;;
67065;SDS011;53978;43.846;25.952;2024-02-21T04:32:38;15.48;;;8.73;;
67065;SDS011;53978;43.846;25.952;2024-02-21T04:35:04;14.63;;;8.65;;
67065;SDS011;53978;43.846;25.952;2024-02-21T04:37:29;14.43;;;7.80;;
67065;SDS011;53978;43.846;25.952;2024-02-21T04:39:56;16.83;;;8.27;;
67065;SDS011;53978;43.846;25.952;2024-02-21T04:42:23;16.40;;;8.35;;
67065;SDS011;53978;43.846;25.952;2024-02-21T04:44:49;16.85;;;8.15;;
67065;SDS011;53978;43.846;25.952;2024-02-21T04:47:14;14.35;;;8.02;;
67065;SDS011;53978;43.846;25.952;2024-02-21T04:49:41;16.05;;;8.10;;
67065;SDS011;53978;43.846;25.952;2024-02-21T04:52:06;15.57;;;8.15;;
67065;SDS011;53978;43.846;25.952;2024-02-21T04:54:33;14.57;;;7.97;;
67065;SDS011;53978;43.846;25.952;2024-02-21T04:57:00;15.88;;;7.88;;
67065;SDS011;53978;43.846;25.952;2024-02-21T04:59:26;17.52;;;8.50;;
67065;SDS011;53978;43.846;25.952;2024-02-21T05:01:52;16.98;;;8.65;;
67065;SDS011;53978;43.846;25.952;2024-02-21T05:04:18;15.60;;;8.35;;
67065;SDS011;53978;43.846;25.952;2024-02-21T05:06:43;16.98;;;8.68;;
67065;SDS011;53978;43.846;25.952;2024-02-21T05:09:09;15.38;;;8.68;;
67065;SDS011;53978;43.846;25.952;2024-02-21T05:11:38;17.48;;;8.25;;
67065;SDS011;53978;43.846;25.952;2024-02-21T05:14:03;14.52;;;8.50;;
67065;SDS011;53978;43.846;25.952;2024-02-21T05:16:33;15.68;;;8.63;;
67065;SDS011;53978;43.846;25.952;2024-02-21T05:18:58;15.75;;;8.20;;
67065;SDS011;53978;43.846;25.952;2024-02-21T05:21:25;14.13;;;8.55;;
67065;SDS011;53978;43.846;25.952;2024-02-21T05:23:54;14.85;;;7.97;;
67065;SDS011;53978;43.846;25.952;2024-02-21T05:26:25;18.30;;;8.20;;
67065;SDS011;53978;43.846;25.952;2024-02-21T05:28:56;14.75;;;8.38;;
67065;SDS011;53978;43.846;25.952;2024-02-21T05:31:22;15.48;;;8.40;;
67065;SDS011;53978;43.846;25.952;2024-02-21T05:33:47;17.00;;;8.70;;
67065;SDS011;53978;43.846;25.952;2024-02-21T05:36:13;14.10;;;8.10;;
67065;SDS011;53978;43.846;25.952;2024-02-21T05:38:38;15.02;;;8.70;;
67065;SDS011;53978;43.846;25.952;2024-02-21T05:41:04;18.55;;;8.13;;
67065;SDS011;53978;43.846;25.952;2024-02-21T05:43:32;16.70;;;8.73;;
67065;SDS011;53978;43.846;25.952;2024-02-21T05:46:02;13.98;;;8.55;;
67065;SDS011;53978;43.846;25.952;2024-02-21T05:48:28;14.45;;;9.10;;
67065;SDS011;53978;43.846;25.952;2024-02-21T05:50:54;15.77;;;8.55;;
67065;SDS011;53978;43.846;25.952;2024-02-21T05:53:21;15.45;;;8.70;;
67065;SDS011;53978;43.846;25.952;2024-02-21T05:55:47;17.77;;;8.93;;
67065;SDS011;53978;43.846;25.952;2024-02-21T05:58:15;19.98;;;10.25;;
67065;SDS011;53978;43.846;25.952;2024-02-21T06:00:40;20.10;;;10.73;;
67065;SDS011;53978;43.846;25.952;2024-02-21T06:03:10;19.42;;;10.18;;
67065;SDS011;53978;43.846;25.952;2024-02-21T06:05:38;17.27;;;9.68;;
67065;SDS011;53978;43.846;25.952;2024-02-21T06:08:05;15.35;;;9.07;;
67065;SDS011;53978;43.846;25.952;2024-02-21T06:10:34;17.45;;;8.93;;
67065;SDS011;53978;43.846;25.952;2024-02-21T06:12:59;17.70;;;9.18;;
67065;SDS011;53978;43.846;25.952;2024-02-21T06:15:24;17.40;;;8.75;;
67065;SDS011;53978;43.846;25.952;2024-02-21T06:17:50;14.40;;;8.32;;
67065;SDS011;53978;43.846;25.952;2024-02-21T06:20:18;20.20;;;9.57;;
67065;SDS011;53978;43.846;25.952;2024-02-21T06:22:44;16.40;;;9.13;;
67065;SDS011;53978;43.846;25.952;2024-02-21T06:25:09;17.95;;;8.82;;
67065;SDS011;53978;43.846;25.952;2024-02-21T06:27:35;16.45;;;8.60;;
67065;SDS011;53978;43.846;25.952;2024-02-21T06:30:00;15.65;;;8.90;;
67065;SDS011;53978;43.846;25.952;2024-02-21T06:32:26;15.80;;;9.02;;
67065;SDS011;53978;43.846;25.952;2024-02-21T06:34:51;14.63;;;8.25;;
67065;SDS011;53978;43.846;25.952;2024-02-21T06:37:16;16.25;;;8.70;;
67065;SDS011;53978;43.846;25.952;2024-02-21T06:39:42;14.38;;;7.97;;
67065;SDS011;53978;43.846;25.952;2024-02-21T06:42:07;15.50;;;9.00;;
67065;SDS011;53978;43.846;25.952;2024-02-21T06:44:33;17.67;;;9.73;;
67065;SDS011;53978;43.846;25.952;2024-02-21T06:47:06;22.40;;;10.27;;
67065;SDS011;53978;43.846;25.952;2024-02-21T06:49:34;17.92;;;9.85;;
67065;SDS011;53978;43.846;25.952;2024-02-21T06:52:01;19.83;;;11.20;;
67065;SDS011;53978;43.846;25.952;2024-02-21T06:54:27;22.45;;;13.00;;
67065;SDS011;53978;43.846;25.952;2024-02-21T06:56:53;24.58;;;12.77;;
67065;SDS011;53978;43.846;25.952;2024-02-21T06:59:18;19.52;;;9.82;;
67065;SDS011;53978;43.846;25.952;2024-02-21T07:01:44;19.85;;;10.57;;
67065;SDS011;53978;43.846;25.952;2024-02-21T07:04:11;19.85;;;10.73;;
67065;SDS011;53978;43.846;25.952;2024-02-21T07:06:39;19.48;;;10.52;;
67065;SDS011;53978;43.846;25.952;2024-02-21T07:09:05;23.02;;;10.95;;
67065;SDS011;53978;43.846;25.952;2024-02-21T07:11:31;24.08;;;11.82;;
67065;SDS011;53978;43.846;25.952;2024-02-21T07:13:56;26.48;;;12.95;;
67065;SDS011;53978;43.846;25.952;2024-02-21T07:16:22;30.27;;;12.98;;
67065;SDS011;53978;43.846;25.952;2024-02-21T07:18:47;27.27;;;10.90;;
67065;SDS011;53978;43.846;25.952;2024-02-21T07:21:13;19.60;;;10.77;;
67065;SDS011;53978;43.846;25.952;2024-02-21T07:23:41;23.55;;;11.38;;
67065;SDS011;53978;43.846;25.952;2024-02-21T07:26:07;26.90;;;12.40;;
67065;SDS011;53978;43.846;25.952;2024-02-21T07:28:32;24.23;;;13.15;;
67065;SDS011;53978;43.846;25.952;2024-02-21T07:31:00;31.20;;;16.10;;
67065;SDS011;53978;43.846;25.952;2024-02-21T07:33:25;40.63;;;16.15;;
67065;SDS011;53978;43.846;25.952;2024-02-21T07:35:52;35.67;;;15.95;;
67065;SDS011;53978;43.846;25.952;2024-02-21T07:38:17;34.67;;;15.82;;
67065;SDS011;53978;43.846;25.952;2024-02-21T07:40:46;31.08;;;16.88;;
67065;SDS011;53978;43.846;25.952;2024-02-21T07:43:12;34.03;;;16.88;;
67065;SDS011;53978;43.846;25.952;2024-02-21T07:45:40;33.35;;;16.33;;
67065;SDS011;53978;43.846;25.952;2024-02-21T07:48:06;35.15;;;17.55;;
67065;SDS011;53978;43.846;25.952;2024-02-21T07:50:32;28.58;;;15.82;;
67065;SDS011;53978;43.846;25.952;2024-02-21T07:52:57;27.00;;;14.70;;
67065;SDS011;53978;43.846;25.952;2024-02-21T07:55:25;31.67;;;14.90;;
67065;SDS011;53978;43.846;25.952;2024-02-21T07:57:52;24.15;;;13.48;;
67065;SDS011;53978;43.846;25.952;2024-02-21T08:00:18;28.85;;;14.60;;
67065;SDS011;53978;43.846;25.952;2024-02-21T08:02:47;32.83;;;14.27;;
67065;SDS011;53978;43.846;25.952;2024-02-21T08:05:13;25.23;;;13.35;;
67065;SDS011;53978;43.846;25.952;2024-02-21T08:07:39;36.40;;;14.07;;
67065;SDS011;53978;43.846;25.952;2024-02-21T08:10:04;22.60;;;13.10;;
67065;SDS011;53978;43.846;25.952;2024-02-21T08:12:33;24.45;;;13.05;;
67065;SDS011;53978;43.846;25.952;2024-02-21T08:14:58;29.52;;;15.25;;
67065;SDS011;53978;43.846;25.952;2024-02-21T08:17:24;36.00;;;15.43;;
67065;SDS011;53978;43.846;25.952;2024-02-21T08:19:49;26.25;;;14.60;;
67065;SDS011;53978;43.846;25.952;2024-02-21T08:22:15;32.25;;;15.63;;
67065;SDS011;53978;43.846;25.952;2024-02-21T08:24:41;29.17;;;14.48;;
67065;SDS011;53978;43.846;25.952;2024-02-21T08:27:07;24.30;;;12.00;;
67065;SDS011;53978;43.846;25.952;2024-02-21T08:29:32;23.27;;;11.00;;
67065;SDS011;53978;43.846;25.952;2024-02-21T08:31:58;27.85;;;12.85;;
67065;SDS011;53978;43.846;25.952;2024-02-21T08:34:23;22.98;;;11.98;;
67065;SDS011;53978;43.846;25.952;2024-02-21T08:36:48;20.52;;;10.57;;
67065;SDS011;53978;43.846;25.952;2024-02-21T08:39:15;21.75;;;10.80;;
67065;SDS011;53978;43.846;25.952;2024-02-21T08:41:46;19.73;;;10.20;;
67065;SDS011;53978;43.846;25.952;2024-02-21T08:44:11;16.77;;;9.75;;
67065;SDS011;53978;43.846;25.952;2024-02-21T08:46:37;20.42;;;9.60;;
67065;SDS011;53978;43.846;25.952;2024-02-21T08:49:05;16.67;;;9.57;;
67065;SDS011;53978;43.846;25.952;2024-02-21T08:51:31;18.45;;;9.95;;
67065;SDS011;53978;43.846;25.952;2024-02-21T08:53:59;18.88;;;10.52;;
67065;SDS011;53978;43.846;25.952;2024-02-21T08:56:26;15.00;;;9.07;;
67065;SDS011;53978;43.846;25.952;2024-02-21T08:58:51;19.60;;;9.85;;
67065;SDS011;53978;43.846;25.952;2024-02-21T09:01:19;20.08;;;9.88;;
67065;SDS011;53978;43.846;25.952;2024-02-21T09:03:46;17.08;;;9.18;;
67065;SDS011;53978;43.846;25.952;2024-02-21T09:06:11;19.58;;;8.90;;
67065;SDS011;53978;43.846;25.952;2024-02-21T09:08:41;24.65;;;10.40;;
67065;SDS011;53978;43.846;25.952;2024-02-21T09:11:08;22.75;;;10.75;;
67065;SDS011;53978;43.846;25.952;2024-02-21T09:13:33;16.75;;;9.82;;
67065;SDS011;53978;43.846;25.952;2024-02-21T09:16:00;16.02;;;8.68;;
67065;SDS011;53978;43.846;25.952;2024-02-21T09:18:26;17.23;;;8.88;;
67065;SDS011;53978;43.846;25.952;2024-02-21T09:20:51;16.52;;;9.38;;
67065;SDS011;53978;43.846;25.952;2024-02-21T09:23:17;14.38;;;8.73;;
67065;SDS011;53978;43.846;25.952;2024-02-21T09:25:44;15.10;;;8.57;;
67065;SDS011;53978;43.846;25.952;2024-02-21T09:28:11;16.48;;;8.48;;
67065;SDS011;53978;43.846;25.952;2024-02-21T09:30:38;16.50;;;7.93;;
67065;SDS011;53978;43.846;25.952;2024-02-21T09:33:06;13.35;;;8.10;;
67065;SDS011;53978;43.846;25.952;2024-02-21T09:35:31;16.75;;;8.75;;
67065;SDS011;53978;43.846;25.952;2024-02-21T09:37:58;17.42;;;9.80;;
67065;SDS011;53978;43.846;25.952;2024-02-21T09:40:24;19.70;;;9.55;;
67065;SDS011;53978;43.846;25.952;2024-02-21T09:42:50;17.02;;;9.27;;
67065;SDS011;53978;43.846;25.952;2024-02-21T09:45:27;15.68;;;9.00;;
67065;SDS011;53978;43.846;25.952;2024-02-21T09:50:43;48.85;;;20.50;;
67065;SDS011;53978;43.846;25.952;2024-02-21T09:53:08;35.85;;;17.20;;
67065;SDS011;53978;43.846;25.952;2024-02-21T09:55:38;48.08;;;19.70;;
67065;SDS011;53978;43.846;25.952;2024-02-21T09:58:07;29.08;;;14.88;;
67065;SDS011;53978;43.846;25.952;2024-02-21T10:00:33;14.32;;;7.32;;
67065;SDS011;53978;43.846;25.952;2024-02-21T10:03:00;11.43;;;7.13;;
67065;SDS011;53978;43.846;25.952;2024-02-21T10:05:48;16.40;;;8.55;;
67065;SDS011;53978;43.846;25.952;2024-02-21T10:08:17;16.15;;;9.05;;
67065;SDS011;53978;43.846;25.952;2024-02-21T10:10:44;13.43;;;8.77;;
67065;SDS011;53978;43.846;25.952;2024-02-21T10:13:21;16.58;;;8.68;;
67065;SDS011;53978;43.846;25.952;2024-02-21T10:15:59;13.05;;;8.20;;
67065;SDS011;53978;43.846;25.952;2024-02-21T10:18:29;12.18;;;8.25;;
67065;SDS011;53978;43.846;25.952;2024-02-21T10:21:01;14.38;;;8.55;;
67065;SDS011;53978;43.846;25.952;2024-02-21T10:23:46;15.35;;;7.90;;
67065;SDS011;53978;43.846;25.952;2024-02-21T10:26:14;13.35;;;7.18;;
67065;SDS011;53978;43.846;25.952;2024-02-21T10:28:40;11.85;;;7.45;;
67065;SDS011;53978;43.846;25.952;2024-02-21T10:31:10;11.35;;;6.85;;
67065;SDS011;53978;43.846;25.952;2024-02-21T10:33:36;16.52;;;7.97;;
67065;SDS011;53978;43.846;25.952;2024-02-21T10:36:10;14.73;;;7.80;;
67065;SDS011;53978;43.846;25.952;2024-02-21T10:38:38;16.70;;;8.13;;
67065;SDS011;53978;43.846;25.952;2024-02-21T10:41:06;16.92;;;8.38;;
67065;SDS011;53978;43.846;25.952;2024-02-21T10:43:33;19.90;;;8.57;;
67065;SDS011;53978;43.846;25.952;2024-02-21T10:46:05;18.15;;;9.18;;
67065;SDS011;53978;43.846;25.952;2024-02-21T10:48:46;19.38;;;10.45;;
67065;SDS011;53978;43.846;25.952;2024-02-21T10:51:20;23.33;;;12.15;;
67065;SDS011;53978;43.846;25.952;2024-02-21T10:56:31;29.55;;;11.77;;
67065;SDS011;53978;43.846;25.952;2024-02-21T10:59:01;21.77;;;11.20;;
67065;SDS011;53978;43.846;25.952;2024-02-21T11:01:30;19.40;;;10.95;;
67065;SDS011;53978;43.846;25.952;2024-02-21T11:03:58;21.77;;;10.90;;
67065;SDS011;53978;43.846;25.952;2024-02-21T11:06:27;21.83;;;10.70;;
67065;SDS011;53978;43.846;25.952;2024-02-21T11:14:20;30.05;;;12.43;;
67065;SDS011;53978;43.846;25.952;2024-02-21T11:16:46;26.75;;;12.80;;
67065;SDS011;53978;43.846;25.952;2024-02-21T11:21:45;27.55;;;11.35;;
67065;SDS011;53978;43.846;25.952;2024-02-21T11:24:10;23.30;;;11.63;;
67065;SDS011;53978;43.846;25.952;2024-02-21T11:26:37;21.25;;;11.50;;
67065;SDS011;53978;43.846;25.952;2024-02-21T11:29:04;27.88;;;13.25;;
67065;SDS011;53978;43.846;25.952;2024-02-21T11:31:40;25.90;;;12.40;;
67065;SDS011;53978;43.846;25.952;2024-02-21T11:34:24;20.75;;;12.18;;
67065;SDS011;53978;43.846;25.952;2024-02-21T11:36:50;25.77;;;11.88;;
67065;SDS011;53978;43.846;25.952;2024-02-21T11:39:25;22.63;;;12.18;;
67065;SDS011;53978;43.846;25.952;2024-02-21T11:42:04;22.40;;;12.45;;
67065;SDS011;53978;43.846;25.952;2024-02-21T11:44:33;23.65;;;12.43;;
67065;SDS011;53978;43.846;25.952;2024-02-21T11:46:59;26.60;;;13.38;;
67065;SDS011;53978;43.846;25.952;2024-02-21T11:49:25;25.02;;;14.05;;
67065;SDS011;53978;43.846;25.952;2024-02-21T11:52:02;29.77;;;13.35;;
67065;SDS011;53978;43.846;25.952;2024-02-21T11:54:31;24.75;;;13.05;;
67065;SDS011;53978;43.846;25.952;2024-02-21T11:56:58;22.48;;;11.98;;
67065;SDS011;53978;43.846;25.952;2024-02-21T11:59:24;27.38;;;11.75;;
67065;SDS011;53978;43.846;25.952;2024-02-21T12:01:50;20.73;;;11.90;;
67065;SDS011;53978;43.846;25.952;2024-02-21T12:04:17;17.63;;;10.40;;
67065;SDS011;53978;43.846;25.952;2024-02-21T12:06:44;15.95;;;9.25;;
67065;SDS011;53978;43.846;25.952;2024-02-21T12:09:13;15.60;;;8.85;;
67065;SDS011;53978;43.846;25.952;2024-02-21T12:11:40;20.80;;;9.73;;
67065;SDS011;53978;43.846;25.952;2024-02-21T12:14:06;14.52;;;8.95;;
67065;SDS011;53978;43.846;25.952;2024-02-21T12:16:34;17.38;;;9.27;;
67065;SDS011;53978;43.846;25.952;2024-02-21T12:19:02;15.80;;;8.32;;
67065;SDS011;53978;43.846;25.952;2024-02-21T12:21:33;14.90;;;8.15;;
67065;SDS011;53978;43.846;25.952;2024-02-21T12:26:46;18.90;;;8.52;;
67065;SDS011;53978;43.846;25.952;2024-02-21T12:29:12;13.52;;;8.35;;
67065;SDS011;53978;43.846;25.952;2024-02-21T12:31:38;20.13;;;9.13;;
67065;SDS011;53978;43.846;25.952;2024-02-21T12:34:05;16.42;;;8.20;;
67065;SDS011;53978;43.846;25.952;2024-02-21T12:36:33;13.88;;;8.60;;
67065;SDS011;53978;43.846;25.952;2024-02-21T12:38:59;13.55;;;7.57;;
67065;SDS011;53978;43.846;25.952;2024-02-21T12:41:26;14.88;;;8.13;;
67065;SDS011;53978;43.846;25.952;2024-02-21T12:43:56;12.82;;;8.38;;
67065;SDS011;53978;43.846;25.952;2024-02-21T12:46:26;12.60;;;7.82;;
67065;SDS011;53978;43.846;25.952;2024-02-21T12:48:53;14.07;;;8.63;;
67065;SDS011;53978;43.846;25.952;2024-02-21T12:51:18;19.50;;;8.50;;
67065;SDS011;53978;43.846;25.952;2024-02-21T12:53:47;17.80;;;9.35;;
67065;SDS011;53978;43.846;25.952;2024-02-21T12:56:14;22.23;;;9.85;;
67065;SDS011;53978;43.846;25.952;2024-02-21T12:58:40;24.52;;;10.50;;
67065;SDS011;53978;43.846;25.952;2024-02-21T13:01:05;19.23;;;10.40;;
67065;SDS011;53978;43.846;25.952;2024-02-21T13:03:33;21.23;;;9.45;;
67065;SDS011;53978;43.846;25.952;2024-02-21T13:06:00;14.07;;;8.38;;
67065;SDS011;53978;43.846;25.952;2024-02-21T13:08:26;19.30;;;9.15;;
67065;SDS011;53978;43.846;25.952;2024-02-21T13:10:52;18.48;;;9.30;;
67065;SDS011;53978;43.846;25.952;2024-02-21T13:13:17;21.42;;;8.93;;
67065;SDS011;53978;43.846;25.952;2024-02-21T13:15:43;18.92;;;8.82;;
67065;SDS011;53978;43.846;25.952;2024-02-21T13:18:09;16.77;;;8.43;;
67065;SDS011;53978;43.846;25.952;2024-02-21T13:20:35;20.08;;;9.15;;
67065;SDS011;53978;43.846;25.952;2024-02-21T13:23:03;20.05;;;8.50;;
67065;SDS011;53978;43.846;25.952;2024-02-21T13:25:30;18.45;;;8.10;;
67065;SDS011;53978;43.846;25.952;2024-02-21T13:27:57;12.45;;;7.75;;
67065;SDS011;53978;43.846;25.952;2024-02-21T13:30:22;16.42;;;7.88;;
67065;SDS011;53978;43.846;25.952;2024-02-21T13:32:48;13.32;;;8.18;;
67065;SDS011;53978;43.846;25.952;2024-02-21T13:35:13;14.82;;;8.40;;
67065;SDS011;53978;43.846;25.952;2024-02-21T13:37:45;12.30;;;7.32;;
67065;SDS011;53978;43.846;25.952;2024-02-21T13:40:10;15.20;;;7.70;;
67065;SDS011;53978;43.846;25.952;2024-02-21T13:42:43;13.32;;;7.20;;
67065;SDS011;53978;43.846;25.952;2024-02-21T13:45:16;11.27;;;7.35;;
67065;SDS011;53978;43.846;25.952;2024-02-21T13:47:42;15.40;;;7.72;;
67065;SDS011;53978;43.846;25.952;2024-02-21T13:50:12;17.15;;;7.55;;
67065;SDS011;53978;43.846;25.952;2024-02-21T13:52:39;19.17;;;8.45;;
67065;SDS011;53978;43.846;25.952;2024-02-21T13:55:05;16.30;;;8.57;;
67065;SDS011;53978;43.846;25.952;2024-02-21T13:57:34;16.15;;;8.15;;
67065;SDS011;53978;43.846;25.952;2024-02-21T14:00:02;16.25;;;8.07;;
67065;SDS011;53978;43.846;25.952;2024-02-21T14:02:32;17.90;;;9.57;;
67065;SDS011;53978;43.846;25.952;2024-02-21T14:04:58;19.90;;;9.57;;
67065;SDS011;53978;43.846;25.952;2024-02-21T14:07:24;18.70;;;9.57;;
67065;SDS011;53978;43.846;25.952;2024-02-21T14:09:51;19.35;;;8.65;;
67065;SDS011;53978;43.846;25.952;2024-02-21T14:12:18;22.85;;;8.77;;
67065;SDS011;53978;43.846;25.952;2024-02-21T14:14:46;15.55;;;8.23;;
67065;SDS011;53978;43.846;25.952;2024-02-21T14:17:12;15.55;;;8.07;;
67065;SDS011;53978;43.846;25.952;2024-02-21T14:19:38;12.75;;;8.32;;
67065;SDS011;53978;43.846;25.952;2024-02-21T14:22:04;15.73;;;8.70;;
67065;SDS011;53978;43.846;25.952;2024-02-21T14:24:31;15.55;;;8.07;;
67065;SDS011;53978;43.846;25.952;2024-02-21T14:27:04;15.73;;;8.35;;
67065;SDS011;53978;43.846;25.952;2024-02-21T14:29:29;11.02;;;7.30;;
67065;SDS011;53978;43.846;25.952;2024-02-21T14:31:55;15.00;;;7.97;;
67065;SDS011;53978;43.846;25.952;2024-02-21T14:34:20;16.25;;;7.57;;